createdAt,value
2022-08-26T00:02:05.596Z,20.83
2022-08-26T00:04:52.951Z,16.73
2022-08-26T00:07:40.309Z,20.90
2022-08-26T00:10:30.654Z,21.73
2022-08-26T00:13:19.727Z,17.08
2022-08-26T00:16:08.626Z,22.02
2022-08-26T00:18:58.976Z,22.15
2022-08-26T00:21:46.015Z,20.13
2022-08-26T00:24:33.717Z,21.13
2022-08-26T00:27:21.109Z,19.85
2022-08-26T00:30:14.581Z,20.25
2022-08-26T00:33:03.288Z,18.33
2022-08-26T00:35:52.891Z,20.15
2022-08-26T00:38:40.382Z,17.00
2022-08-26T00:41:29.785Z,26.17
2022-08-26T00:44:17.391Z,18.83
2022-08-26T00:47:10.773Z,21.10
2022-08-26T00:49:59.265Z,19.58
2022-08-26T00:52:48.266Z,21.40
2022-08-26T00:55:41.745Z,23.85
2022-08-26T00:58:32.970Z,21.33
2022-08-26T01:01:23.000Z,23.73
2022-08-26T01:04:13.005Z,20.52
2022-08-26T01:07:01.342Z,21.92
2022-08-26T01:09:48.830Z,25.17
2022-08-26T01:12:41.862Z,24.65
2022-08-26T01:18:21.680Z,20.40
2022-08-26T01:21:22.264Z,19.13
2022-08-26T01:24:13.891Z,20.67
2022-08-26T01:27:05.267Z,21.38
2022-08-26T01:29:53.784Z,18.50
2022-08-26T01:32:41.788Z,21.77
2022-08-26T01:35:29.549Z,22.00
2022-08-26T01:38:18.186Z,23.13
2022-08-26T01:41:19.699Z,22.40
2022-08-26T01:44:10.140Z,21.92
2022-08-26T01:46:59.737Z,22.65
2022-08-26T01:49:52.160Z,25.73
2022-08-26T01:52:44.391Z,22.17
2022-08-26T01:55:35.686Z,27.77
2022-08-26T01:58:30.454Z,22.63
2022-08-26T02:01:18.944Z,23.08
2022-08-26T02:04:14.610Z,24.70
2022-08-26T02:07:06.727Z,31.38
2022-08-26T02:09:56.978Z,19.98
2022-08-26T02:12:44.265Z,24.15
2022-08-26T02:15:34.630Z,20.10
2022-08-26T02:18:22.567Z,19.83
2022-08-26T02:21:12.269Z,25.50
2022-08-26T02:24:09.609Z,22.38
2022-08-26T02:26:58.590Z,20.90
2022-08-26T02:29:50.443Z,21.80
2022-08-26T02:32:42.782Z,21.50
2022-08-26T02:35:30.464Z,23.27
2022-08-26T02:38:17.714Z,23.67
2022-08-26T02:41:05.751Z,23.77
2022-08-26T02:43:56.061Z,24.55
2022-08-26T02:46:43.679Z,23.35
2022-08-26T02:49:39.166Z,25.75
2022-08-26T02:52:26.995Z,22.08
2022-08-26T02:55:16.234Z,22.90
2022-08-26T02:58:03.877Z,25.17
2022-08-26T03:00:52.546Z,28.05
2022-08-26T03:03:41.248Z,20.48
2022-08-26T03:06:30.711Z,22.77
2022-08-26T03:09:19.733Z,24.23
2022-08-26T03:12:07.241Z,21.13
2022-08-26T03:14:54.972Z,30.05
2022-08-26T03:17:42.326Z,23.63
2022-08-26T03:20:30.881Z,23.10
2022-08-26T03:23:19.202Z,23.75
2022-08-26T03:26:08.454Z,24.00
2022-08-26T03:29:12.232Z,23.52
2022-08-26T03:31:58.210Z,22.50
2022-08-26T03:34:43.928Z,21.90
2022-08-26T03:37:29.927Z,22.00
2022-08-26T03:40:20.841Z,19.73
2022-08-26T03:43:11.839Z,24.00
2022-08-26T03:46:00.650Z,23.65
2022-08-26T03:48:48.359Z,20.58
2022-08-26T03:51:39.046Z,19.77
2022-08-26T03:54:26.292Z,19.55
2022-08-26T03:57:15.029Z,18.27
2022-08-26T04:00:06.364Z,20.73
2022-08-26T04:02:55.792Z,18.95
2022-08-26T04:05:42.862Z,25.30
2022-08-26T04:08:30.196Z,23.30
2022-08-26T04:11:20.715Z,22.17
2022-08-26T04:14:14.375Z,21.48
2022-08-26T04:17:06.197Z,23.50
2022-08-26T04:19:54.828Z,22.50
2022-08-26T04:22:42.847Z,18.63
2022-08-26T04:25:30.051Z,20.20
2022-08-26T04:28:17.415Z,21.48
2022-08-26T04:31:09.125Z,21.70
2022-08-26T04:33:56.810Z,21.10
2022-08-26T04:36:45.373Z,26.15
2022-08-26T04:39:32.982Z,23.65
2022-08-26T04:42:25.993Z,31.77
2022-08-26T04:45:14.176Z,41.28
2022-08-26T04:48:02.735Z,52.75
2022-08-26T04:50:52.323Z,42.38
2022-08-26T04:53:39.629Z,37.78
2022-08-26T04:56:30.056Z,24.45
2022-08-26T04:59:18.559Z,29.38
2022-08-26T05:02:07.109Z,25.13
2022-08-26T05:04:55.800Z,22.60
2022-08-26T05:07:43.300Z,21.90
2022-08-26T05:10:30.686Z,17.38
2022-08-26T05:13:20.676Z,25.15
2022-08-26T05:16:11.673Z,23.42
2022-08-26T05:18:59.021Z,22.88
2022-08-26T05:21:49.417Z,17.98
2022-08-26T05:24:36.365Z,18.65
2022-08-26T05:27:26.523Z,18.20
2022-08-26T05:30:13.909Z,25.60
2022-08-26T05:33:01.667Z,19.65
2022-08-26T05:35:49.667Z,22.92
2022-08-26T05:38:37.905Z,19.45
2022-08-26T05:41:34.351Z,21.45
2022-08-26T05:44:23.929Z,22.60
2022-08-26T05:47:10.944Z,22.85
2022-08-26T05:49:58.049Z,26.02
2022-08-26T05:52:45.471Z,30.13
2022-08-26T05:55:33.760Z,26.80
2022-08-26T05:58:23.119Z,30.98
2022-08-26T06:01:16.022Z,32.78
2022-08-26T06:06:55.082Z,25.13
2022-08-26T06:09:45.824Z,26.38
2022-08-26T06:12:35.685Z,26.50
2022-08-26T06:15:23.324Z,27.33
2022-08-26T06:18:11.928Z,23.48
2022-08-26T06:21:00.336Z,30.20
2022-08-26T06:24:02.939Z,20.42
2022-08-26T06:26:51.781Z,21.67
2022-08-26T06:29:39.421Z,20.67
2022-08-26T06:32:25.571Z,17.48
2022-08-26T06:35:13.130Z,21.98
2022-08-26T06:38:02.804Z,17.13
2022-08-26T06:40:53.289Z,23.13
2022-08-26T06:43:42.086Z,22.73
2022-08-26T06:46:31.646Z,17.33
2022-08-26T06:49:20.454Z,14.20
2022-08-26T06:52:17.187Z,15.20
2022-08-26T06:55:09.766Z,17.42
2022-08-26T06:57:59.229Z,13.70
2022-08-26T07:00:47.190Z,17.88
2022-08-26T07:03:39.638Z,15.82
2022-08-26T07:06:28.905Z,15.82
2022-08-26T07:09:16.935Z,15.93
2022-08-26T07:12:06.811Z,13.07
2022-08-26T07:14:56.012Z,12.35
2022-08-26T07:17:45.480Z,14.57
2022-08-26T07:20:37.563Z,18.88
2022-08-26T07:23:25.002Z,16.65
2022-08-26T07:26:16.416Z,16.65
2022-08-26T07:29:04.566Z,15.82
2022-08-26T07:31:52.176Z,16.08
2022-08-26T07:34:41.945Z,12.15
2022-08-26T07:37:31.037Z,11.85
2022-08-26T07:40:27.483Z,11.32
2022-08-26T07:43:15.829Z,10.27
2022-08-26T07:46:07.949Z,10.63
2022-08-26T07:49:00.619Z,9.10
2022-08-26T07:51:51.372Z,11.20
2022-08-26T07:54:40.740Z,10.63
2022-08-26T07:57:29.256Z,8.02
2022-08-26T08:00:18.167Z,7.78
2022-08-26T08:03:07.469Z,9.07
2022-08-26T08:05:55.184Z,8.88
2022-08-26T08:08:43.255Z,8.27
2022-08-26T08:11:32.466Z,9.00
2022-08-26T08:14:22.245Z,7.28
2022-08-26T08:17:09.894Z,7.45
2022-08-26T08:19:57.017Z,6.20
2022-08-26T08:22:45.451Z,8.32
2022-08-26T08:25:35.871Z,8.05
2022-08-26T08:28:23.988Z,11.48
2022-08-26T08:31:11.383Z,13.07
2022-08-26T08:33:59.340Z,9.68
2022-08-26T08:36:47.220Z,9.50
2022-08-26T08:39:34.315Z,8.05
2022-08-26T08:42:36.671Z,9.45
2022-08-26T08:45:36.283Z,9.48
2022-08-26T08:48:28.132Z,10.05
2022-08-26T08:51:23.720Z,9.68
2022-08-26T08:54:11.976Z,11.50
2022-08-26T08:57:06.393Z,9.93
2022-08-26T09:00:03.916Z,13.30
2022-08-26T09:02:59.863Z,12.50
2022-08-26T09:05:51.585Z,15.73
2022-08-26T09:08:38.707Z,11.55
2022-08-26T09:11:26.745Z,11.18
2022-08-26T09:14:14.342Z,13.90
2022-08-26T09:17:11.048Z,16.50
2022-08-26T09:20:11.104Z,16.92
2022-08-26T09:23:01.633Z,16.10
2022-08-26T09:25:52.465Z,15.18
2022-08-26T09:28:43.955Z,13.13
2022-08-26T09:31:35.330Z,9.43
2022-08-26T09:34:25.944Z,17.15
2022-08-26T09:37:15.406Z,12.85
2022-08-26T09:40:20.755Z,18.75
2022-08-26T09:43:13.690Z,15.23
2022-08-26T09:46:20.204Z,14.32
2022-08-26T09:49:26.419Z,12.35
2022-08-26T09:52:23.737Z,13.23
2022-08-26T09:55:16.276Z,17.88
2022-08-26T09:58:07.966Z,9.93
2022-08-26T10:01:01.642Z,12.73
2022-08-26T10:03:50.600Z,12.30
2022-08-26T10:06:43.069Z,16.92
2022-08-26T10:09:36.128Z,8.43
2022-08-26T10:12:25.269Z,13.35
2022-08-26T10:15:15.437Z,17.67
2022-08-26T10:18:09.575Z,11.10
2022-08-26T10:23:50.875Z,12.35
2022-08-26T10:26:47.672Z,10.00
2022-08-26T10:29:40.763Z,13.07
2022-08-26T10:32:35.160Z,9.45
2022-08-26T10:35:24.752Z,12.88
2022-08-26T10:38:16.227Z,13.82
2022-08-26T10:41:10.333Z,13.98
2022-08-26T10:44:01.587Z,12.77
2022-08-26T10:46:52.174Z,10.57
2022-08-26T10:49:40.992Z,17.88
2022-08-26T10:52:38.208Z,9.68
2022-08-26T10:55:36.666Z,15.07
2022-08-26T10:58:39.311Z,11.52
2022-08-26T11:01:50.964Z,10.20
2022-08-26T11:07:40.729Z,10.02
2022-08-26T11:10:57.942Z,16.13
2022-08-26T11:14:01.865Z,18.75
2022-08-26T11:16:53.208Z,12.82
2022-08-26T11:20:02.118Z,12.70
2022-08-26T11:22:52.472Z,10.70
2022-08-26T11:26:18.868Z,13.98
2022-08-26T11:30:01.121Z,11.57
2022-08-26T11:32:53.489Z,15.38
2022-08-26T11:35:51.182Z,12.97
2022-08-26T11:38:44.255Z,14.50
2022-08-26T11:41:32.996Z,12.93
2022-08-26T11:44:24.023Z,14.25
2022-08-26T11:47:17.845Z,11.32
2022-08-26T11:50:12.599Z,10.13
2022-08-26T11:53:06.069Z,13.63
2022-08-26T11:59:02.187Z,11.60
2022-08-26T12:01:52.671Z,10.25
2022-08-26T12:04:44.541Z,15.98
2022-08-26T12:07:34.330Z,9.82
2022-08-26T12:10:31.374Z,13.77
2022-08-26T12:13:25.065Z,14.90
2022-08-26T12:16:14.949Z,9.93
2022-08-26T12:19:22.725Z,10.73
2022-08-26T12:22:21.593Z,11.18
2022-08-26T12:25:12.666Z,8.30
2022-08-26T12:28:07.121Z,6.18
2022-08-26T12:31:04.886Z,13.45
2022-08-26T12:33:53.539Z,12.10
2022-08-26T12:36:47.050Z,12.25
2022-08-26T12:39:36.969Z,12.32
2022-08-26T12:42:43.021Z,8.23
2022-08-26T12:45:32.437Z,6.18
2022-08-26T12:48:26.509Z,4.55
2022-08-26T12:51:25.072Z,7.03
2022-08-26T12:54:17.143Z,7.30
2022-08-26T12:57:12.035Z,5.90
2022-08-26T13:00:29.343Z,7.60
2022-08-26T13:03:32.767Z,7.28
2022-08-26T13:09:32.404Z,9.30
2022-08-26T13:12:29.814Z,7.70
2022-08-26T13:15:17.889Z,6.78
2022-08-26T13:18:05.909Z,7.75
2022-08-26T13:20:55.218Z,5.78
2022-08-26T13:23:43.138Z,11.30
2022-08-26T13:26:30.957Z,7.03
2022-08-26T13:29:18.958Z,7.70
2022-08-26T13:32:08.170Z,7.38
2022-08-26T13:34:59.730Z,8.93
2022-08-26T13:37:53.212Z,11.50
2022-08-26T13:40:41.186Z,8.05
2022-08-26T13:43:29.236Z,8.02
2022-08-26T13:46:17.066Z,9.25
2022-08-26T13:49:06.031Z,6.80
2022-08-26T13:51:53.495Z,8.73
2022-08-26T13:54:42.926Z,11.63
2022-08-26T13:57:31.309Z,10.50
2022-08-26T14:00:19.795Z,11.45
2022-08-26T14:03:12.624Z,10.50
2022-08-26T14:06:01.258Z,8.68
2022-08-26T14:08:49.692Z,6.53
2022-08-26T14:11:50.837Z,11.85
2022-08-26T14:14:42.502Z,7.97
2022-08-26T14:17:30.782Z,9.85
2022-08-26T14:20:24.289Z,8.43
2022-08-26T14:23:13.978Z,12.20
2022-08-26T14:26:03.937Z,12.43
2022-08-26T14:28:53.284Z,6.72
2022-08-26T14:31:40.898Z,7.40
2022-08-26T14:34:28.780Z,9.07
2022-08-26T14:37:16.956Z,8.90
2022-08-26T14:40:06.235Z,10.00
2022-08-26T14:42:55.494Z,8.55
2022-08-26T14:45:48.511Z,9.60
2022-08-26T14:48:36.119Z,10.25
2022-08-26T14:51:24.279Z,11.35
2022-08-26T14:54:14.172Z,6.50
2022-08-26T14:57:04.002Z,10.27
2022-08-26T14:59:51.723Z,13.43
2022-08-26T15:02:40.962Z,13.88
2022-08-26T15:05:28.675Z,7.82
2022-08-26T15:08:17.045Z,9.07
2022-08-26T15:11:05.860Z,10.25
2022-08-26T15:13:53.297Z,10.02
2022-08-26T15:16:41.485Z,9.63
2022-08-26T15:19:30.878Z,13.88
2022-08-26T15:22:18.485Z,10.10
2022-08-26T15:25:06.685Z,17.23
2022-08-26T15:27:54.558Z,10.60
2022-08-26T15:30:42.043Z,13.02
2022-08-26T15:33:29.969Z,10.80
2022-08-26T15:36:19.179Z,13.55
2022-08-26T15:39:08.780Z,8.75
2022-08-26T15:41:57.684Z,15.65
2022-08-26T15:44:45.881Z,12.65
2022-08-26T15:47:35.502Z,10.52
2022-08-26T15:50:52.756Z,9.50
2022-08-26T15:53:41.755Z,11.43
2022-08-26T15:56:31.627Z,11.68
2022-08-26T15:59:20.946Z,17.15
2022-08-26T16:02:09.830Z,11.57
2022-08-26T16:04:57.075Z,12.80
2022-08-26T16:07:46.980Z,12.90
2022-08-26T16:10:38.180Z,17.13
2022-08-26T16:13:25.679Z,9.93
2022-08-26T16:16:17.700Z,15.27
2022-08-26T16:19:07.675Z,15.98
2022-08-26T16:21:56.050Z,15.73
2022-08-26T16:24:44.046Z,15.23
2022-08-26T16:27:33.673Z,10.80
2022-08-26T16:30:22.054Z,16.00
2022-08-26T16:33:10.395Z,17.15
2022-08-26T16:36:00.222Z,13.18
2022-08-26T16:38:53.529Z,16.30
2022-08-26T16:41:41.356Z,12.85
2022-08-26T16:44:44.761Z,15.98
2022-08-26T16:47:31.986Z,13.63
2022-08-26T16:50:20.841Z,10.80
2022-08-26T16:53:15.653Z,17.17
2022-08-26T16:56:04.062Z,10.50
2022-08-26T16:58:54.121Z,14.48
2022-08-26T17:01:43.543Z,12.60
2022-08-26T17:04:32.003Z,19.52
2022-08-26T17:07:19.894Z,13.27
2022-08-26T17:10:08.892Z,14.13
2022-08-26T17:12:57.126Z,13.85
2022-08-26T17:15:54.239Z,13.65
2022-08-26T17:18:47.424Z,16.77
2022-08-26T17:21:37.024Z,17.63
2022-08-26T17:24:25.376Z,19.20
2022-08-26T17:27:13.137Z,13.70
2022-08-26T17:30:00.968Z,12.80
2022-08-26T17:32:49.099Z,13.68
2022-08-26T17:35:38.691Z,17.45
2022-08-26T17:38:29.357Z,11.55
2022-08-26T17:41:17.531Z,18.35
2022-08-26T17:44:06.794Z,13.50
2022-08-26T17:46:54.496Z,18.80
2022-08-26T17:49:42.838Z,15.88
2022-08-26T17:52:32.562Z,11.80
2022-08-26T17:55:20.983Z,17.30
2022-08-26T17:58:09.790Z,16.25
2022-08-26T18:00:58.208Z,14.23
2022-08-26T18:03:46.032Z,19.23
2022-08-26T18:06:33.680Z,20.63
2022-08-26T18:09:23.218Z,14.15
2022-08-26T18:12:11.810Z,14.73
2022-08-26T18:14:59.589Z,14.30
2022-08-26T18:17:47.039Z,12.90
2022-08-26T18:20:35.498Z,16.70
2022-08-26T18:23:23.700Z,18.60
2022-08-26T18:26:20.321Z,13.55
2022-08-26T18:29:10.781Z,18.58
2022-08-26T18:31:58.457Z,13.15
2022-08-26T18:34:46.468Z,16.35
2022-08-26T18:37:35.925Z,17.58
2022-08-26T18:40:23.467Z,12.40
2022-08-26T18:43:12.830Z,12.68
2022-08-26T18:46:05.748Z,14.35
2022-08-26T18:48:54.240Z,16.67
2022-08-26T18:51:42.884Z,13.38
2022-08-26T18:54:30.740Z,13.82
2022-08-26T18:57:18.729Z,14.50
2022-08-26T19:00:09.484Z,11.13
2022-08-26T19:02:57.144Z,6.53
2022-08-26T19:05:44.823Z,6.95
2022-08-26T19:08:32.407Z,6.70
2022-08-26T19:11:32.189Z,9.32
2022-08-26T19:14:20.599Z,12.75
2022-08-26T19:17:10.120Z,33.40
2022-08-26T19:19:57.474Z,35.95
2022-08-26T19:22:46.016Z,28.88
2022-08-26T19:25:34.001Z,50.83
2022-08-26T19:28:22.422Z,40.10
2022-08-26T19:31:11.550Z,23.75
2022-08-26T19:34:00.486Z,28.65
2022-08-26T19:36:48.382Z,24.27
2022-08-26T19:39:36.173Z,13.18
2022-08-26T19:42:23.215Z,9.43
2022-08-26T19:45:25.239Z,12.10
2022-08-26T19:48:13.154Z,8.32
2022-08-26T19:51:02.155Z,9.35
2022-08-26T19:53:50.119Z,12.10
2022-08-26T19:56:37.924Z,12.38
2022-08-26T19:59:25.468Z,10.13
2022-08-26T20:02:13.822Z,12.90
2022-08-26T20:05:01.542Z,11.10
2022-08-26T20:07:51.395Z,12.68
2022-08-26T20:10:39.117Z,10.77
2022-08-26T20:13:28.912Z,12.07
2022-08-26T20:16:33.089Z,8.45
2022-08-26T20:19:37.510Z,12.88
2022-08-26T20:22:24.773Z,12.82
2022-08-26T20:25:12.614Z,10.07
2022-08-26T20:27:59.432Z,10.45
2022-08-26T20:30:47.237Z,10.27
2022-08-26T20:33:46.003Z,12.70
2022-08-26T20:36:35.062Z,14.82
2022-08-26T20:39:23.328Z,11.50
2022-08-26T20:42:20.119Z,12.48
2022-08-26T20:45:09.697Z,11.25
2022-08-26T20:47:57.571Z,9.77
2022-08-26T20:50:46.483Z,10.55
2022-08-26T20:53:34.907Z,11.80
2022-08-26T20:56:24.683Z,17.48
2022-08-26T20:59:14.323Z,12.23
2022-08-26T21:02:01.696Z,11.73
2022-08-26T21:04:49.490Z,11.05
2022-08-26T21:07:37.319Z,12.20
2022-08-26T21:10:25.086Z,12.18
2022-08-26T21:13:13.916Z,13.85
2022-08-26T21:16:03.261Z,14.50
2022-08-26T21:18:51.308Z,11.73
2022-08-26T21:21:39.288Z,10.95
2022-08-26T21:24:26.761Z,12.50
2022-08-26T21:27:17.674Z,13.48
2022-08-26T21:30:17.179Z,11.77
2022-08-26T21:33:06.387Z,13.88
2022-08-26T21:35:54.841Z,15.48
2022-08-26T21:38:43.665Z,15.20
2022-08-26T21:41:31.271Z,10.40
2022-08-26T21:44:19.747Z,13.75
2022-08-26T21:47:07.667Z,14.13
2022-08-26T21:49:57.055Z,10.73
2022-08-26T21:52:44.798Z,11.27
2022-08-26T21:55:36.682Z,11.65
2022-08-26T21:58:24.358Z,16.75
2022-08-26T22:01:13.537Z,9.32
2022-08-26T22:04:01.072Z,10.25
2022-08-26T22:06:52.331Z,9.52
2022-08-26T22:09:40.743Z,10.63
2022-08-26T22:12:32.233Z,9.27
2022-08-26T22:15:23.333Z,11.10
2022-08-26T22:18:11.304Z,13.48
2022-08-26T22:21:01.036Z,14.90
2022-08-26T22:23:50.008Z,10.02
2022-08-26T22:26:37.725Z,9.85
2022-08-26T22:29:25.848Z,11.68
2022-08-26T22:32:13.671Z,12.98
2022-08-26T22:35:01.500Z,14.60
2022-08-26T22:38:00.104Z,12.98
2022-08-26T22:40:51.878Z,14.88
2022-08-26T22:43:39.704Z,14.23
2022-08-26T22:46:28.850Z,16.52
2022-08-26T22:49:17.777Z,17.98
2022-08-26T22:52:05.252Z,15.27
2022-08-26T22:54:52.975Z,19.08
2022-08-26T22:57:42.292Z,21.95
2022-08-26T23:00:32.439Z,15.57
2022-08-26T23:03:20.688Z,19.52
2022-08-26T23:06:10.877Z,19.30
2022-08-26T23:08:59.277Z,12.98
2022-08-26T23:11:47.878Z,16.25
2022-08-26T23:14:37.658Z,12.90
2022-08-26T23:17:25.194Z,16.05
2022-08-26T23:20:15.568Z,22.42
2022-08-26T23:23:04.160Z,19.92
2022-08-26T23:25:51.483Z,22.33
2022-08-26T23:28:39.859Z,16.35
2022-08-26T23:31:28.920Z,19.08
2022-08-26T23:34:30.397Z,16.15
2022-08-26T23:37:16.734Z,17.38
2022-08-26T23:40:04.983Z,15.27
2022-08-26T23:42:52.646Z,18.02
2022-08-26T23:45:40.573Z,19.55
2022-08-26T23:48:29.905Z,17.40
2022-08-26T23:51:31.686Z,17.33
2022-08-26T23:54:18.149Z,17.00
2022-08-26T23:57:05.043Z,16.17
2022-08-26T23:59:52.498Z,15.00
